createdAt,value
2022-08-05T00:01:35.532Z,11.00
2022-08-05T00:04:05.225Z,11.40
2022-08-05T00:06:36.246Z,11.13
2022-08-05T00:09:04.633Z,11.13
2022-08-05T00:11:49.068Z,11.30
2022-08-05T00:14:17.526Z,12.20
2022-08-05T00:16:53.306Z,12.63
2022-08-05T00:19:22.589Z,10.90
2022-08-05T00:21:51.125Z,13.60
2022-08-05T00:24:24.389Z,11.40
2022-08-05T00:26:54.100Z,11.47
2022-08-05T00:29:25.299Z,10.80
2022-08-05T00:32:13.363Z,11.13
2022-08-05T00:34:54.550Z,11.17
2022-08-05T00:37:50.794Z,10.57
2022-08-05T00:40:17.896Z,11.70
2022-08-05T00:43:00.177Z,12.20
2022-08-05T00:45:42.877Z,11.80
2022-08-05T00:48:12.925Z,12.67
2022-08-05T00:50:41.364Z,12.33
2022-08-05T00:54:00.085Z,13.07
2022-08-05T00:56:01.847Z,15.07
2022-08-05T00:58:30.665Z,14.70
2022-08-05T01:00:58.249Z,14.03
2022-08-05T01:03:30.943Z,25.53
2022-08-05T01:06:01.388Z,22.90
2022-08-05T01:08:43.446Z,21.50
2022-08-05T01:11:22.646Z,20.50
2022-08-05T01:14:03.508Z,20.15
2022-08-05T01:16:36.845Z,19.97
2022-08-05T01:19:14.843Z,19.27
2022-08-05T01:21:58.183Z,19.47
2022-08-05T01:24:41.452Z,18.93
2022-08-05T01:27:27.088Z,19.20
2022-08-05T01:30:03.965Z,19.00
2022-08-05T01:32:33.387Z,19.80
2022-08-05T01:35:04.200Z,18.67
2022-08-05T01:37:44.298Z,18.70
2022-08-05T01:40:13.697Z,18.77
2022-08-05T01:42:46.341Z,18.90
2022-08-05T01:45:16.615Z,18.10
2022-08-05T01:47:45.625Z,19.77
2022-08-05T01:50:18.925Z,18.80
2022-08-05T01:52:58.971Z,18.43
2022-08-05T01:55:27.950Z,18.33
2022-08-05T01:58:14.773Z,17.63
2022-08-05T02:00:46.997Z,17.33
2022-08-05T02:03:31.276Z,17.33
2022-08-05T02:06:03.613Z,17.50
2022-08-05T02:08:58.254Z,17.83
2022-08-05T02:11:33.644Z,18.63
2022-08-05T02:14:04.132Z,18.50
2022-08-05T02:16:36.122Z,19.27
2022-08-05T02:19:13.015Z,18.63
2022-08-05T02:21:49.064Z,18.43
2022-08-05T02:24:23.114Z,18.77
2022-08-05T02:26:54.811Z,18.50
2022-08-05T02:29:58.178Z,18.87
2022-08-05T02:32:23.639Z,19.10
2022-08-05T02:34:57.978Z,19.17
2022-08-05T02:37:29.568Z,17.97
2022-08-05T02:39:59.884Z,17.43
2022-08-05T02:42:31.915Z,17.50
2022-08-05T02:45:02.738Z,18.27
2022-08-05T02:48:07.282Z,17.50
2022-08-05T02:50:19.958Z,18.40
2022-08-05T02:52:47.796Z,18.60
2022-08-05T02:55:17.571Z,19.17
2022-08-05T02:58:11.318Z,19.13
2022-08-05T03:00:41.224Z,18.57
2022-08-05T03:03:16.345Z,20.37
2022-08-05T03:06:53.645Z,19.50
2022-08-05T03:08:32.225Z,21.47
2022-08-05T03:11:01.302Z,20.97
2022-08-05T03:13:51.768Z,19.20
2022-08-05T03:16:31.662Z,19.17
2022-08-05T03:19:00.788Z,19.07
2022-08-05T03:21:33.196Z,18.10
2022-08-05T03:24:10.514Z,19.63
2022-08-05T03:26:41.179Z,21.80
2022-08-05T03:29:13.351Z,23.90
2022-08-05T03:31:55.644Z,23.93
2022-08-05T03:34:26.407Z,27.73
2022-08-05T03:36:54.932Z,28.77
2022-08-05T03:39:27.162Z,23.73
2022-08-05T03:41:56.389Z,30.27
2022-08-05T03:44:24.122Z,35.17
2022-08-05T03:46:51.605Z,28.13
2022-08-05T03:49:19.446Z,34.43
2022-08-05T03:52:48.602Z,38.50
2022-08-05T03:56:00.973Z,39.37
2022-08-05T03:57:42.246Z,40.40
2022-08-05T04:00:12.693Z,34.67
2022-08-05T04:02:57.545Z,39.03
2022-08-05T04:05:28.233Z,38.70
2022-08-05T04:08:03.589Z,40.77
2022-08-05T04:10:37.971Z,39.60
2022-08-05T04:13:07.040Z,33.70
2022-08-05T04:15:36.135Z,36.00
2022-08-05T04:18:07.006Z,36.20
2022-08-05T04:20:36.715Z,36.10
2022-08-05T04:23:05.532Z,42.17
2022-08-05T04:25:57.076Z,34.43
2022-08-05T04:28:21.137Z,35.87
2022-08-05T04:31:00.780Z,49.30
2022-08-05T04:33:36.398Z,41.93
2022-08-05T04:36:46.143Z,41.53
2022-08-05T04:39:05.662Z,37.13
2022-08-05T04:41:37.636Z,44.67
2022-08-05T04:44:09.586Z,37.57
2022-08-05T04:46:37.878Z,39.10
2022-08-05T04:49:05.813Z,42.83
2022-08-05T04:51:39.933Z,41.70
2022-08-05T04:54:11.983Z,39.90
2022-08-05T04:56:40.128Z,41.07
2022-08-05T04:59:22.023Z,44.23
2022-08-05T05:02:36.135Z,44.13
2022-08-05T05:04:47.619Z,46.87
2022-08-05T05:07:17.567Z,38.00
2022-08-05T05:09:46.634Z,38.53
2022-08-05T05:12:14.853Z,44.23
2022-08-05T05:14:49.269Z,47.73
2022-08-05T05:17:23.469Z,41.57
2022-08-05T05:19:54.349Z,62.87
2022-08-05T05:22:24.532Z,49.53
2022-08-05T05:24:58.550Z,51.07
2022-08-05T05:27:44.635Z,44.27
2022-08-05T05:30:15.301Z,42.33
2022-08-05T05:33:00.998Z,47.37
2022-08-05T05:35:37.582Z,43.97
2022-08-05T05:38:13.505Z,44.27
2022-08-05T05:40:48.122Z,47.60
2022-08-05T05:43:27.723Z,43.50
2022-08-05T05:46:13.671Z,44.40
2022-08-05T05:48:46.062Z,42.13
2022-08-05T05:51:22.395Z,49.93
2022-08-05T05:53:57.709Z,43.97
2022-08-05T05:56:31.861Z,48.63
2022-08-05T05:59:03.614Z,47.40
2022-08-05T06:01:37.078Z,48.97
2022-08-05T06:04:07.273Z,48.17
2022-08-05T06:06:35.553Z,52.57
2022-08-05T06:09:03.981Z,61.37
2022-08-05T06:11:33.270Z,50.37
2022-08-05T06:14:01.667Z,56.30
2022-08-05T06:16:36.672Z,54.40
2022-08-05T06:19:07.407Z,49.10
2022-08-05T06:21:38.325Z,43.73
2022-08-05T06:24:11.989Z,47.70
2022-08-05T06:26:51.250Z,47.43
2022-08-05T06:29:23.610Z,45.93
2022-08-05T06:31:54.361Z,49.13
2022-08-05T06:34:21.869Z,50.50
2022-08-05T06:36:57.381Z,45.83
2022-08-05T06:39:27.028Z,40.93
2022-08-05T06:41:58.729Z,36.17
2022-08-05T06:44:26.755Z,30.60
2022-08-05T06:46:54.521Z,33.77
2022-08-05T06:50:00.058Z,30.50
2022-08-05T06:52:36.618Z,35.73
2022-08-05T06:54:57.174Z,31.07
2022-08-05T06:57:57.677Z,23.27
2022-08-05T07:00:14.188Z,28.10
2022-08-05T07:02:53.607Z,28.17
2022-08-05T07:05:31.791Z,30.23
2022-08-05T07:08:10.930Z,25.43
2022-08-05T07:10:39.388Z,26.40
2022-08-05T07:13:58.698Z,23.37
2022-08-05T07:18:01.907Z,23.67
2022-08-05T07:20:29.834Z,23.17
2022-08-05T07:22:22.346Z,23.93
2022-08-05T07:24:56.977Z,24.93
2022-08-05T07:27:27.354Z,22.20
2022-08-05T07:30:25.408Z,25.07
2022-08-05T07:32:45.990Z,26.13
2022-08-05T07:36:01.554Z,22.10
2022-08-05T07:38:12.169Z,24.00
2022-08-05T07:40:44.387Z,21.90
2022-08-05T07:43:14.567Z,21.73
2022-08-05T07:45:57.565Z,22.17
2022-08-05T07:49:00.419Z,22.60
2022-08-05T07:51:23.681Z,23.03
2022-08-05T07:54:03.223Z,22.33
2022-08-05T07:56:49.018Z,22.40
2022-08-05T07:59:23.194Z,27.20
2022-08-05T08:02:00.249Z,22.10
2022-08-05T08:04:37.889Z,23.27
2022-08-05T08:07:07.468Z,23.53
2022-08-05T08:09:35.219Z,22.73
2022-08-05T08:12:12.531Z,22.40
2022-08-05T08:14:46.624Z,24.97
2022-08-05T08:17:16.405Z,27.33
2022-08-05T08:20:43.690Z,24.93
2022-08-05T08:22:32.867Z,24.77
2022-08-05T08:25:03.073Z,25.80
2022-08-05T08:27:39.874Z,25.50
2022-08-05T08:30:29.522Z,26.13
2022-08-05T08:33:04.501Z,25.97
2022-08-05T08:35:41.086Z,26.20
2022-08-05T08:38:16.451Z,24.40
2022-08-05T08:40:50.483Z,24.20
2022-08-05T08:45:18.291Z,23.23
2022-08-05T08:46:10.022Z,23.37
2022-08-05T08:49:04.160Z,22.00
2022-08-05T08:52:03.553Z,21.27
2022-08-05T08:54:22.238Z,20.40
2022-08-05T08:56:56.630Z,21.23
2022-08-05T08:59:27.761Z,20.57
2022-08-05T09:02:01.846Z,19.73
2022-08-05T09:04:31.155Z,21.20
2022-08-05T09:06:58.946Z,20.43
2022-08-05T09:09:34.712Z,20.27
2022-08-05T09:12:20.022Z,22.30
2022-08-05T09:14:57.115Z,22.23
2022-08-05T09:17:40.851Z,23.33
2022-08-05T09:20:36.299Z,24.07
2022-08-05T09:23:09.378Z,24.63
2022-08-05T09:26:02.468Z,25.83
2022-08-05T09:28:32.350Z,24.33
2022-08-05T09:32:38.702Z,21.60
2022-08-05T09:36:27.789Z,19.40
2022-08-05T11:41:14.141Z,19.70
2022-08-05T11:51:43.637Z,19.40
2022-08-05T11:54:24.426Z,19.40
2022-08-05T11:57:02.278Z,19.33
2022-08-05T11:59:49.459Z,20.07
2022-08-05T12:02:29.811Z,19.03
2022-08-05T12:05:07.066Z,19.30
2022-08-05T12:08:08.585Z,19.50
2022-08-05T12:10:43.053Z,18.70
2022-08-05T12:13:15.571Z,19.10
2022-08-05T12:15:45.161Z,19.03
2022-08-05T12:18:18.864Z,19.03
2022-08-05T12:20:49.550Z,18.50
2022-08-05T12:24:07.647Z,18.70
2022-08-05T12:31:07.229Z,18.83
2022-08-05T12:33:36.456Z,18.27
2022-08-05T12:36:09.412Z,18.97
2022-08-05T12:38:39.640Z,19.07
2022-08-05T12:41:13.193Z,20.00
2022-08-05T12:43:52.254Z,20.47
2022-08-05T12:46:29.404Z,19.30
2022-08-05T12:49:12.888Z,19.93
2022-08-05T12:52:13.457Z,20.50
2022-08-05T12:54:34.749Z,19.43
2022-08-05T12:57:03.880Z,20.03
2022-08-05T12:59:46.872Z,21.67
2022-08-05T13:02:22.030Z,21.80
2022-08-05T13:04:57.697Z,22.70
2022-08-05T13:10:19.869Z,21.10
2022-08-05T13:12:51.171Z,24.47
2022-08-05T13:15:35.862Z,20.27
2022-08-05T13:18:09.487Z,20.13
2022-08-05T13:20:40.421Z,21.00
2022-08-05T13:23:09.566Z,19.37
2022-08-05T13:25:52.701Z,20.90
2022-08-05T13:28:24.597Z,20.57
2022-08-05T13:30:53.329Z,20.07
2022-08-05T13:34:25.062Z,20.97
2022-08-05T13:36:09.127Z,20.20
2022-08-05T13:38:42.806Z,20.33
2022-08-05T13:41:10.757Z,20.63
2022-08-05T13:43:44.433Z,21.27
2022-08-05T13:46:14.295Z,20.60
2022-08-05T13:48:57.269Z,21.53
2022-08-05T13:51:29.698Z,21.20
2022-08-05T13:54:12.570Z,20.43
2022-08-05T13:56:45.415Z,20.40
2022-08-05T13:59:21.102Z,20.27
2022-08-05T14:01:57.489Z,20.17
2022-08-05T14:04:50.448Z,20.00
2022-08-05T14:07:25.689Z,20.60
2022-08-05T14:10:11.454Z,20.07
2022-08-05T14:12:39.382Z,20.17
2022-08-05T14:16:09.087Z,19.90
2022-08-05T14:17:59.800Z,20.00
2022-08-05T14:20:28.354Z,20.13
2022-08-05T14:22:56.000Z,19.30
2022-08-05T14:25:28.186Z,20.17
2022-08-05T14:27:55.888Z,20.00
2022-08-05T14:30:26.687Z,20.27
2022-08-05T14:32:56.673Z,20.60
2022-08-05T14:35:37.315Z,21.87
2022-08-05T14:38:31.688Z,20.80
2022-08-05T14:41:06.296Z,21.37
2022-08-05T14:43:53.956Z,21.42
2022-08-05T14:46:28.661Z,21.45
2022-08-05T14:48:58.210Z,22.40
2022-08-05T14:51:26.457Z,22.23
2022-08-05T14:54:26.236Z,22.30
2022-08-05T14:56:47.393Z,22.40
2022-08-05T14:59:15.415Z,21.67
2022-08-05T15:01:48.011Z,21.85
2022-08-05T15:04:17.233Z,21.77
2022-08-05T15:06:49.332Z,21.98
2022-08-05T15:09:50.616Z,21.60
2022-08-05T15:12:08.823Z,21.57
2022-08-05T15:14:48.033Z,21.50
2022-08-05T15:17:46.321Z,21.60
2022-08-05T15:20:06.274Z,21.40
2022-08-05T15:22:37.378Z,20.73
2022-08-05T15:25:11.877Z,20.90
2022-08-05T15:27:52.120Z,20.10
2022-08-05T15:30:20.266Z,20.10
2022-08-05T15:32:49.993Z,20.30
2022-08-05T15:35:17.551Z,20.53
2022-08-05T15:38:33.059Z,20.00
2022-08-05T15:41:01.109Z,19.80
2022-08-05T15:43:46.948Z,18.63
2022-08-05T15:46:40.252Z,17.42
2022-08-05T15:49:10.050Z,17.58
2022-08-05T15:52:13.574Z,17.50
2022-08-05T15:54:37.354Z,17.02
2022-08-05T15:57:07.342Z,17.42
2022-08-05T15:59:38.173Z,16.92
2022-08-05T16:02:09.444Z,16.33
2022-08-05T16:04:42.393Z,16.65
2022-08-05T16:07:10.811Z,16.10
2022-08-05T16:09:41.510Z,15.90
2022-08-05T16:12:09.961Z,16.00
2022-08-05T16:14:40.401Z,15.77
2022-08-05T16:17:07.953Z,16.00
2022-08-05T16:20:04.199Z,15.90
2022-08-05T16:22:27.787Z,16.77
2022-08-05T16:25:07.934Z,16.30
2022-08-05T16:27:47.164Z,16.07
2022-08-05T16:30:28.804Z,16.43
2022-08-05T16:32:57.316Z,16.37
2022-08-05T16:35:28.464Z,18.53
2022-08-05T16:38:16.768Z,17.00
2022-08-05T16:40:51.595Z,16.77
2022-08-05T16:43:23.717Z,16.73
2022-08-05T16:46:05.057Z,16.73
2022-08-05T16:48:37.389Z,16.73
2022-08-05T16:51:10.168Z,17.47
2022-08-05T16:54:05.366Z,16.73
2022-08-05T16:56:27.898Z,16.53
2022-08-05T16:58:55.714Z,17.10
2022-08-05T17:01:24.837Z,16.57
2022-08-05T17:03:52.684Z,16.43
2022-08-05T17:06:20.687Z,16.50
2022-08-05T17:08:54.463Z,18.47
2022-08-05T17:11:23.404Z,18.80
2022-08-05T17:14:00.162Z,18.23
2022-08-05T17:16:36.490Z,17.87
2022-08-05T17:19:07.003Z,15.37
2022-08-05T17:21:36.941Z,15.17
2022-08-05T17:24:14.317Z,15.90
2022-08-05T17:26:54.126Z,15.87
2022-08-05T17:29:33.236Z,16.23
2022-08-05T17:32:11.775Z,15.43
2022-08-05T17:34:47.733Z,15.97
2022-08-05T17:37:32.100Z,15.80
2022-08-05T17:40:04.374Z,15.93
2022-08-05T17:42:33.085Z,15.97
2022-08-05T17:45:17.873Z,15.90
2022-08-05T17:47:54.601Z,15.73
2022-08-05T17:50:27.708Z,16.10
2022-08-05T17:52:56.722Z,16.10
2022-08-05T17:55:34.703Z,16.03
2022-08-05T17:58:06.918Z,15.77
2022-08-05T18:00:35.884Z,16.20
2022-08-05T18:03:28.206Z,16.33
2022-08-05T18:06:04.336Z,16.20
2022-08-05T18:08:33.723Z,16.10
2022-08-05T18:11:03.256Z,16.13
2022-08-05T18:13:36.880Z,15.57
2022-08-05T18:16:13.360Z,16.53
2022-08-05T18:18:48.600Z,16.03
2022-08-05T18:21:21.105Z,15.67
2022-08-05T18:23:53.909Z,15.90
2022-08-05T18:26:21.953Z,15.40
2022-08-05T18:28:56.290Z,15.30
2022-08-05T18:31:24.398Z,15.53
2022-08-05T18:33:54.852Z,15.50
2022-08-05T18:36:27.996Z,15.10
2022-08-05T18:38:55.884Z,15.57
2022-08-05T18:41:53.444Z,15.33
2022-08-05T18:44:11.248Z,15.17
2022-08-05T18:46:41.208Z,15.23
2022-08-05T18:49:30.356Z,15.00
2022-08-05T18:52:15.909Z,14.80
2022-08-05T18:54:45.860Z,14.90
2022-08-05T18:57:15.333Z,14.67
2022-08-05T19:00:01.386Z,14.30
2022-08-05T19:02:30.927Z,14.50
2022-08-05T19:06:05.474Z,14.50
2022-08-05T19:07:49.815Z,14.30
2022-08-05T19:10:17.951Z,14.10
2022-08-05T19:12:46.110Z,13.30
2022-08-05T19:15:54.691Z,13.10
2022-08-05T19:18:09.787Z,13.30
2022-08-05T19:20:41.081Z,12.50
2022-08-05T19:24:04.324Z,12.73
2022-08-05T19:26:02.222Z,12.07
2022-08-05T19:28:30.556Z,12.77
2022-08-05T19:30:58.172Z,11.90
2022-08-05T19:33:35.375Z,12.00
2022-08-05T19:36:06.286Z,12.30
2022-08-05T19:38:35.884Z,11.77
2022-08-05T19:41:07.029Z,12.20
2022-08-05T19:44:05.777Z,11.93
2022-08-05T19:46:30.179Z,12.30
2022-08-05T19:49:00.948Z,12.50
2022-08-05T19:52:08.349Z,11.33
2022-08-05T19:54:25.594Z,11.67
2022-08-05T19:56:58.623Z,11.43
2022-08-05T19:59:56.744Z,12.23
2022-08-05T20:02:13.696Z,11.30
2022-08-05T20:04:43.114Z,11.10
2022-08-05T20:07:14.825Z,11.10
2022-08-05T20:09:53.600Z,10.70
2022-08-05T20:12:24.148Z,10.40
2022-08-05T20:14:52.727Z,10.70
2022-08-05T20:17:23.423Z,10.50
2022-08-05T20:19:56.552Z,10.47
2022-08-05T20:22:26.804Z,10.17
2022-08-05T20:24:55.554Z,10.20
2022-08-05T20:27:26.439Z,9.50
2022-08-05T20:29:57.803Z,10.03
2022-08-05T20:32:27.562Z,9.27
2022-08-05T20:34:55.369Z,9.37
2022-08-05T20:38:06.770Z,8.97
2022-08-05T20:40:13.071Z,8.80
2022-08-05T20:42:40.621Z,9.47
2022-08-05T20:45:11.695Z,8.97
2022-08-05T20:47:40.053Z,9.63
2022-08-05T20:50:09.369Z,9.70
2022-08-05T20:52:41.479Z,9.07
2022-08-05T20:55:56.866Z,9.53
2022-08-05T20:57:58.569Z,9.70
2022-08-05T21:00:44.126Z,9.70
2022-08-05T21:03:16.810Z,10.27
2022-08-05T21:05:54.558Z,10.60
2022-08-05T21:08:26.505Z,10.60
2022-08-05T21:11:10.169Z,10.60
2022-08-05T21:13:47.540Z,11.03
2022-08-05T21:16:23.444Z,10.90
2022-08-05T21:19:00.137Z,10.47
2022-08-05T21:21:39.787Z,11.23
2022-08-05T21:24:12.720Z,11.00
2022-08-05T21:26:41.439Z,10.93
2022-08-05T21:29:12.697Z,10.70
2022-08-05T21:31:44.470Z,11.00
2022-08-05T21:34:12.212Z,11.13
2022-08-05T21:36:39.742Z,11.20
2022-08-05T21:39:10.323Z,10.27
2022-08-05T21:41:42.014Z,10.07
2022-08-05T21:44:27.215Z,9.33
2022-08-05T21:46:58.028Z,10.07
2022-08-05T21:49:58.653Z,9.57
2022-08-05T21:52:22.082Z,9.57
2022-08-05T21:54:55.863Z,9.57
2022-08-05T21:57:32.433Z,9.50
2022-08-05T22:00:06.924Z,9.60
2022-08-05T22:02:43.009Z,9.43
2022-08-05T22:05:11.449Z,8.33
2022-08-05T22:07:58.504Z,9.63
2022-08-05T22:10:27.716Z,9.07
2022-08-05T22:12:57.537Z,9.00
2022-08-05T22:16:01.808Z,9.10
2022-08-05T22:18:15.884Z,9.30
2022-08-05T22:20:47.150Z,9.80
2022-08-05T22:24:00.961Z,10.10
2022-08-05T22:26:42.051Z,11.60
2022-08-05T22:29:18.855Z,10.43
2022-08-05T22:31:59.616Z,11.10
2022-08-05T22:34:31.117Z,11.07
2022-08-05T22:36:59.255Z,10.83
2022-08-05T22:39:31.154Z,9.97
2022-08-05T22:42:11.836Z,11.33
2022-08-05T22:44:42.780Z,10.70
2022-08-05T22:47:29.199Z,11.17
2022-08-05T22:50:19.446Z,11.43
2022-08-05T22:52:46.478Z,10.40
2022-08-05T22:55:18.623Z,10.70
2022-08-05T22:57:49.125Z,11.03
2022-08-05T23:00:20.913Z,11.87
2022-08-05T23:02:51.873Z,12.07
2022-08-05T23:05:22.195Z,11.87
2022-08-05T23:07:50.707Z,11.67
2022-08-05T23:10:19.850Z,11.33
2022-08-05T23:12:51.591Z,12.07
2022-08-05T23:15:27.118Z,12.10
2022-08-05T23:18:02.264Z,12.10
2022-08-05T23:20:32.336Z,12.17
2022-08-05T23:23:00.000Z,11.90
2022-08-05T23:25:51.862Z,11.47
2022-08-05T23:28:15.969Z,11.73
2022-08-05T23:30:53.388Z,12.40
2022-08-05T23:33:26.371Z,12.80
2022-08-05T23:36:13.628Z,12.10
2022-08-05T23:38:41.969Z,12.17
2022-08-05T23:41:10.425Z,15.20
2022-08-05T23:44:06.347Z,12.07
2022-08-05T23:46:25.916Z,12.37
2022-08-05T23:49:00.461Z,12.13
2022-08-05T23:51:46.448Z,11.97
2022-08-05T23:54:25.458Z,11.47
2022-08-05T23:56:55.209Z,12.13
2022-08-05T23:59:23.004Z,12.10
